Laredo International, TX

3:02 AM CDT en Agosto 29, 2014 (GMT -0500)
Cotulla-La Salle County | Change Station
CLOSE
Current Station
Aeropuerto
Location: Cotulla,
Altura: 476 ft
Estaciones meteorológicas cercanas

Alt 476 ft 28.46 °N, 99.22 °W | Updated 9 minutes ago

Clear
Despejado
80 ° F
Sensación térmica 84 ° F
N
9
Viento Variable Viento desde ESE

Hoy
Alta -- | Baja -- ° F
--% Posibilidad de precipitaciones
Ayer
Alta -- | Baja -- ° F
Precip. -- pul
7:15 AM 8:01 PM
Creciente, 13% visible
Presión 29.83 pul
Visibilidad 10.0 Millas
Nubes Despejado
Índice de calor 84 ° F
Punto de rocío 73 ° F
Humedad 79%
Precipitaciones 0.00 pul
Espesor de la nieve No disponible.
UV 0 de una escala de 12
Polen 9.00 de una escala de 12
Ozono Buena
PM2.5 Buena
Flu Activity No disponible.
METAR KCOT 290753Z AUTO 11008KT 10SM CLR 27/23 A2986 RMK AO2 SLP101 T02670228

More Conditions Fewer Conditions

Presión 29.83 pul
Visibilidad 10.0 Millas
Nubes Despejado
Índice de calor 84 ° F
Punto de rocío 73 ° F
Humedad 79%
Precipitaciones 0.00 pul
Espesor de la nieve No disponible.
UV 0 de una escala de 12
Polen 9.00 de una escala de 12
Ozono Buena
PM2.5 Buena
Flu Activity No disponible.
METAR KCOT 290753Z AUTO 11008KT 10SM CLR 27/23 A2986 RMK AO2 SLP101 T02670228

More Conditions Fewer Conditions

10-Day Weather Forecast

Almanac

Astronomía

Aug. 29, 2014 Salida Puesta
Hora real 7:15 AM CDT 8:01 PM CDT
Crepúsculo civil 6:51 AM CDT 8:25 PM CDT
Crepúsculo náutico 6:23 AM CDT 8:53 PM CDT
Crepúsculo astronómico 5:54 AM CDT 9:22 PM CDT
Luna 10:42 AM CDT 10:25 PM CDT
Horas de luz 13h 33m
Horas de luz
12h 46m
Tomorrow will be 1m 33s shorter.
Creciente, 13% of the Moon is Illuminated
Hoy
Creciente
Sep 2
Cuarto creciente
Sep 8
Luna llena
Sep 15
Cuarto menguante
Sep 24
Nueva

Extremos de hoy

Máximos del estado Bajos del estado

Community

WunderPhotos

Upload Photos

1,748,197 ¡fotos cargadas!

Nearby

Calidad del aire

  Calidad del aire Índice AQ Contaminante
Ayer Buena
OZONE
Ayer Buena
PM2.5
Real Buena
PM2.5
Real Buena
OZONE
Viernes Buena
PM10
Viernes Buena
OZONE
Sábado Buena
PM10
Sábado Buena
OZONE
Domingo Buena
PM10
Domingo Buena
OZONE

Grosos de nieve

Estación Profundido Altura
No tenemos constancia de nieve nueva.

Actividad de terremotos

Ciudad Distance Mag. Tiempo y dato
No hay informes recientes de la actividad sísmica.
Magnitud mínima muestra es 2,5.

Temperaturas de aguas costeras

Lugar Temperatura
Sin partes meteorológicos de las estaciones

Estaciones meteorológicas cercanas